Time;durP1;ratioP1;P1;durP2;ratioP2;P2;SDS_P1;SDS_P2;PMS_P1;PMS_P2;Temp;Humidity;BMP_temperature;BMP_pressure;BME280_temperature;BME280_humidity;BME280_pressure;Samples;Min_cycle;Max_cycle;Signal;HPM_P1;HPM_P2
2022/12/05 03:38:59;;;;;;;3.77;2.20;;;;;;;3.66;83.61;103309.95;1763526;80;21726;-51
2022/12/05 03:41:44;;;;;;;8.75;2.95;;;;;;;3.94;81.26;103300.09;1703962;82;21077;-50
2022/12/05 03:44:23;;;;;;;4.50;2.72;;;;;;;4.06;80.42;103303.22;1715062;82;21054;-50
2022/12/05 03:46:59;;;;;;;7.00;3.33;;;;;;;4.13;79.83;103297.55;1647691;85;21035;-51
2022/12/05 03:49:44;;;;;;;7.55;3.62;;;;;;;4.22;79.25;103300.55;1710181;82;21018;-50
2022/12/05 03:52:22;;;;;;;4.60;3.50;;;;;;;4.31;78.80;103294.48;1711602;82;21008;-49
2022/12/05 03:55:01;;;;;;;5.45;2.90;;;;;;;4.39;78.28;103306.02;1701981;82;21076;-50
2022/12/05 03:57:42;;;;;;;3.85;3.15;;;;;;;4.45;77.82;103304.98;1695234;83;21045;-50
2022/12/05 04:00:14;;;;;;;4.05;3.10;;;;;;;4.50;77.48;103308.66;1683070;83;21005;-50
2022/12/05 04:02:46;;;;;;;4.15;2.37;;;;;;;4.55;77.13;103302.02;1621922;86;21140;-50
2022/12/05 04:05:23;;;;;;;6.55;2.95;;;;;;;4.59;76.85;103314.23;1590920;89;21137;-50
2022/12/05 04:08:04;;;;;;;5.55;2.50;;;;;;;4.65;76.48;103304.17;1606809;87;21544;-50
2022/12/05 04:10:47;;;;;;;4.33;2.25;;;;;;;4.68;76.01;103301.71;1579154;89;21633;-50
2022/12/05 04:13:16;;;;;;;3.67;2.33;;;;;;;4.70;75.60;103307.81;1584251;89;21050;-50
2022/12/05 04:17:02;;;;;;;4.10;2.10;;;;;;;4.74;75.15;103306.27;1592598;89;21114;-49
2022/12/05 04:18:00;;;;;;;3.72;2.50;;;;;;;4.76;74.76;103307.21;1589897;88;21570;-50
2022/12/05 04:23:20;;;;;;;6.03;3.10;;;;;;;4.79;74.18;103310.80;1515589;93;21088;-50
2022/12/05 04:25:55;;;;;;;4.58;2.90;;;;;;;4.83;73.81;103311.80;1525351;92;21655;-50
2022/12/05 04:28:29;;;;;;;2.98;2.37;;;;;;;4.83;73.65;103308.81;1483411;94;21253;-50
2022/12/05 04:31:04;;;;;;;4.72;3.05;;;;;;;4.84;73.41;103304.11;1483012;95;21112;-50
2022/12/05 04:33:49;;;;;;;5.42;3.47;;;;;;;4.88;73.40;103310.30;1480429;95;21686;-49
2022/12/05 04:36:26;;;;;;;3.95;2.27;;;;;;;4.91;73.19;103302.67;1489270;94;21599;-50
2022/12/05 04:39:17;;;;;;;3.70;2.15;;;;;;;4.92;72.76;103305.31;1466681;95;21125;-50
2022/12/05 04:41:51;;;;;;;4.47;2.33;;;;;;;4.91;72.54;103297.52;1526331;94;21090;-50
2022/12/05 04:44:22;;;;;;;3.77;2.50;;;;;;;4.91;72.46;103303.96;1472768;97;21172;-50
2022/12/05 04:46:48;;;;;;;4.17;2.22;;;;;;;4.93;72.36;103299.34;1471931;96;21148;-50
2022/12/05 04:49:19;;;;;;;4.17;2.70;;;;;;;4.95;72.15;103301.58;1467273;96;21137;-50
2022/12/05 04:51:46;;;;;;;6.90;2.72;;;;;;;4.99;72.07;103296.56;1471902;96;21107;-50
2022/12/05 04:54:20;;;;;;;5.35;2.08;;;;;;;5.00;71.98;103299.59;1485056;95;21101;-50
2022/12/05 04:56:49;;;;;;;5.53;2.58;;;;;;;4.99;71.82;103306.45;1464022;97;21644;-50
2022/12/05 04:59:15;;;;;;;3.58;2.35;;;;;;;5.01;71.67;103301.37;1485576;96;21120;-50
2022/12/05 05:01:49;;;;;;;3.33;2.22;;;;;;;5.03;71.43;103302.32;1469677;96;21104;-50
2022/12/05 05:04:34;;;;;;;2.77;2.45;;;;;;;5.04;71.13;103305.36;1487876;95;21117;-50
2022/12/05 05:07:10;;;;;;;7.75;3.22;;;;;;;5.04;71.01;103304.06;1548437;90;21143;-50
2022/12/05 05:09:38;;;;;;;5.25;2.72;;;;;;;5.06;70.95;103308.88;1550010;92;21098;-50
2022/12/05 05:12:05;;;;;;;5.37;2.90;;;;;;;5.12;70.76;103305.26;1548612;93;21593;-50
2022/12/05 05:14:32;;;;;;;4.00;3.30;;;;;;;5.10;70.61;103310.77;1548740;93;21100;-50
2022/12/05 05:16:59;;;;;;;7.85;3.27;;;;;;;5.11;70.46;103311.25;1548534;93;21156;-50
2022/12/05 05:19:26;;;;;;;5.75;2.85;;;;;;;5.12;70.37;103312.59;1575275;88;21580;-50
2022/12/05 05:21:53;;;;;;;3.12;2.15;;;;;;;5.13;70.44;103312.20;1622605;88;21101;-51
2022/12/05 05:24:22;;;;;;;8.33;3.47;;;;;;;5.13;70.38;103307.04;1621546;88;21070;-50
2022/12/05 05:26:49;;;;;;;7.40;3.42;;;;;;;5.11;70.10;103312.11;1622564;88;21105;-50
2022/12/05 05:29:15;;;;;;;6.62;3.72;;;;;;;5.09;70.23;103310.31;1622364;88;21584;-50
2022/12/05 05:31:42;;;;;;;6.08;3.17;;;;;;;5.11;70.33;103306.95;1622503;88;21159;-50
2022/12/05 05:34:10;;;;;;;6.72;2.60;;;;;;;5.14;70.32;103316.52;1622280;88;21157;-50
2022/12/05 05:36:37;;;;;;;4.37;2.10;;;;;;;5.16;70.13;103314.89;1622540;88;21098;-50
2022/12/05 05:39:04;;;;;;;3.30;2.40;;;;;;;5.17;70.14;103314.97;1622766;88;21589;-50
2022/12/05 05:41:34;;;;;;;4.50;2.00;;;;;;;5.17;70.01;103316.66;1640834;85;21109;-50
2022/12/05 05:44:01;;;;;;;4.37;1.87;;;;;;;5.17;69.85;103315.38;1654884;86;21055;-50
2022/12/05 05:46:31;;;;;;;3.15;1.85;;;;;;;5.15;69.93;103320.88;1648558;86;21090;-50
2022/12/05 05:48:58;;;;;;;5.00;2.22;;;;;;;5.16;69.94;103326.09;1711249;83;21092;-50
2022/12/05 05:51:26;;;;;;;3.77;2.10;;;;;;;5.13;69.72;103319.94;1723610;82;21455;-50
2022/12/05 05:53:53;;;;;;;3.65;2.25;;;;;;;5.12;69.74;103322.03;1717671;83;21840;-50
2022/12/05 05:56:20;;;;;;;3.83;2.05;;;;;;;5.14;69.70;103325.56;1719152;83;21116;-50
2022/12/05 05:58:47;;;;;;;6.87;2.60;;;;;;;5.14;69.51;103326.84;1709163;83;21068;-50
2022/12/05 06:01:17;;;;;;;4.58;2.20;;;;;;;5.14;69.51;103329.43;1715894;83;21156;-50
2022/12/05 06:03:44;;;;;;;4.97;2.00;;;;;;;5.14;69.50;103337.17;1672131;85;21119;-50
2022/12/05 06:06:12;;;;;;;2.77;2.02;;;;;;;5.16;69.60;103334.24;1680881;83;21078;-50
2022/12/05 06:08:41;;;;;;;4.45;2.42;;;;;;;5.15;69.49;103337.26;1755913;81;20995;-50
2022/12/05 06:11:10;;;;;;;2.52;1.90;;;;;;;5.15;69.50;103341.53;1767447;80;21007;-50
2022/12/05 06:13:37;;;;;;;2.83;2.10;;;;;;;5.13;69.29;103339.30;1752559;80;21018;-50
2022/12/05 06:16:08;;;;;;;3.65;2.50;;;;;;;5.14;69.25;103348.39;1745713;80;21064;-50
2022/12/05 06:18:35;;;;;;;2.40;1.87;;;;;;;5.12;69.04;103341.39;1767716;80;21497;-50
2022/12/05 06:21:04;;;;;;;4.78;3.12;;;;;;;5.09;68.91;103347.73;1753185;80;21089;-50
2022/12/05 06:23:32;;;;;;;7.03;3.77;;;;;;;5.05;68.99;103344.55;1760067;80;21500;-50
2022/12/05 06:25:59;;;;;;;4.47;3.55;;;;;;;5.04;68.99;103341.08;1776875;80;21034;-50
2022/12/05 06:28:26;;;;;;;5.58;3.02;;;;;;;5.05;69.00;103343.27;1779189;80;21018;-50
2022/12/05 06:30:53;;;;;;;4.67;2.20;;;;;;;5.05;68.97;103347.98;1754798;80;21054;-51
2022/12/05 06:33:19;;;;;;;3.52;2.25;;;;;;;5.05;69.00;103347.13;1755985;80;20994;-51
2022/12/05 06:35:46;;;;;;;3.65;2.40;;;;;;;5.05;68.99;103344.55;1759387;80;21054;-51
2022/12/05 06:38:13;;;;;;;3.37;2.17;;;;;;;5.05;68.84;103347.13;1759930;80;21057;-51
2022/12/05 06:40:42;;;;;;;2.47;2.00;;;;;;;5.01;68.50;103352.98;1749582;80;21069;-51
2022/12/05 06:43:10;;;;;;;3.15;2.20;;;;;;;4.95;68.44;103357.05;1699430;83;21069;-52
2022/12/05 06:45:37;;;;;;;3.72;2.30;;;;;;;4.92;68.63;103364.65;1692580;83;21595;-51
2022/12/05 06:48:05;;;;;;;4.08;2.20;;;;;;;4.94;68.73;103368.20;1633243;86;21072;-50
2022/12/05 06:50:32;;;;;;;2.55;2.08;;;;;;;4.97;68.62;103373.88;1679494;83;21101;-51
2022/12/05 06:52:59;;;;;;;5.55;2.15;;;;;;;5.01;68.35;103376.20;1672048;84;21049;-51
2022/12/05 06:55:26;;;;;;;2.67;1.90;;;;;;;5.01;68.13;103380.94;1684849;84;21584;-51
2022/12/05 06:57:52;;;;;;;4.05;1.80;;;;;;;5.01;68.10;103377.50;1641024;86;21072;-50
2022/12/05 07:03:05;;;;;;;5.75;2.17;;;;;;;4.94;68.07;103377.23;1691680;83;21094;-50
2022/12/05 07:05:32;;;;;;;5.85;2.17;;;;;;;4.93;67.89;103372.88;1696312;83;21093;-51
2022/12/05 07:07:59;;;;;;;2.42;2.00;;;;;;;4.92;67.88;103374.97;1623132;87;21157;-50
2022/12/05 07:10:25;;;;;;;3.35;2.55;;;;;;;4.89;67.79;103382.59;1624480;87;21223;-50
2022/12/05 07:12:52;;;;;;;2.80;2.20;;;;;;;4.88;68.03;103384.69;1627343;87;21173;-50
2022/12/05 07:15:21;;;;;;;2.33;2.12;;;;;;;4.87;68.00;103384.23;1669081;84;21512;-50
2022/12/05 07:17:47;;;;;;;6.17;2.22;;;;;;;4.88;68.17;103383.39;1674708;84;21110;-51
2022/12/05 07:20:16;;;;;;;3.83;1.70;;;;;;;4.90;67.90;103392.52;1675789;84;21038;-50
2022/12/05 07:22:44;;;;;;;2.20;1.80;;;;;;;4.89;67.72;103391.63;1670811;83;21046;-50
2022/12/05 07:25:11;;;;;;;3.47;1.90;;;;;;;4.86;67.80;103395.34;1625582;85;21542;-50
2022/12/05 07:27:37;;;;;;;3.02;2.22;;;;;;;4.85;67.86;103392.71;1638246;86;21081;-50
2022/12/05 07:30:06;;;;;;;4.33;2.00;;;;;;;4.84;68.11;103393.11;1621331;86;21099;-50
2022/12/05 07:32:33;;;;;;;2.20;1.52;;;;;;;4.87;68.12;103394.55;1697093;83;21525;-51
2022/12/05 07:35:00;;;;;;;2.22;1.60;;;;;;;4.88;67.98;103398.88;1651299;86;21140;-51
2022/12/05 07:37:27;;;;;;;4.33;2.25;;;;;;;4.88;67.87;103397.59;1644950;86;21142;-50
2022/12/05 07:39:53;;;;;;;2.00;1.67;;;;;;;4.89;67.76;103400.66;1660053;84;21106;-51
2022/12/05 07:42:20;;;;;;;2.08;1.72;;;;;;;4.89;67.81;103395.50;1760626;80;21030;-50
2022/12/05 20:12:43;;;;;;;3.10;1.70;;;;;;;2.71;81.35;103092.77;1780551;80;21599;-59
2022/12/05 20:15:10;;;;;;;5.22;2.02;;;;;;;2.98;79.27;103081.20;1762542;80;21036;-58
2022/12/05 20:17:37;;;;;;;1.50;1.40;;;;;;;3.09;78.60;103077.41;1760222;80;21490;-58
2022/12/05 20:20:06;;;;;;;3.60;1.62;;;;;;;3.17;78.11;103081.20;1773371;80;21030;-58
2022/12/05 20:22:33;;;;;;;2.12;1.57;;;;;;;3.24;77.73;103078.11;1772299;80;21604;-58
2022/12/05 20:25:00;;;;;;;3.85;1.87;;;;;;;3.32;77.47;103073.30;1770289;80;21069;-58
2022/12/05 20:27:27;;;;;;;1.55;1.40;;;;;;;3.40;77.22;103073.65;1764445;80;21592;-58
2022/12/05 20:29:54;;;;;;;1.87;1.37;;;;;;;3.47;76.97;103078.23;1754697;81;21058;-58
2022/12/05 20:32:21;;;;;;;1.87;1.42;;;;;;;3.51;76.78;103072.01;1753187;80;21070;-58
2022/12/05 20:34:48;;;;;;;1.45;1.30;;;;;;;3.57;76.62;103067.52;1685382;83;21090;-58
2022/12/05 20:37:14;;;;;;;1.90;1.67;;;;;;;3.62;76.37;103066.05;1717834;82;21027;-58
2022/12/05 20:39:41;;;;;;;1.85;1.52;;;;;;;3.65;76.08;103067.05;1729068;81;21026;-58
2022/12/05 20:42:08;;;;;;;1.95;1.20;;;;;;;3.70;76.09;103064.27;1724714;82;21082;-58
2022/12/05 20:44:36;;;;;;;2.52;1.47;;;;;;;3.74;76.05;103065.27;1774274;80;21049;-58
2022/12/05 20:47:02;;;;;;;1.90;1.50;;;;;;;3.81;76.10;103068.59;1784608;80;21481;-58
2022/12/05 20:49:29;;;;;;;3.10;1.70;;;;;;;3.89;76.04;103059.09;1759516;80;21073;-58
2022/12/05 20:51:56;;;;;;;4.03;1.95;;;;;;;3.99;75.86;103056.48;1764621;80;21053;-58
2022/12/05 20:54:23;;;;;;;2.25;1.77;;;;;;;4.06;75.57;103058.47;1781794;80;20979;-58
2022/12/05 20:56:50;;;;;;;3.65;1.70;;;;;;;4.10;75.11;103059.11;1769493;80;21116;-58
2022/12/05 20:59:16;;;;;;;3.35;1.87;;;;;;;4.16;74.71;103055.48;1758387;80;21044;-58
2022/12/05 21:01:45;;;;;;;1.90;1.65;;;;;;;4.22;74.31;103050.58;1780446;80;21064;-58
2022/12/05 21:04:12;;;;;;;2.87;1.75;;;;;;;4.26;73.92;103048.59;1783693;80;21042;-58
2022/12/05 21:06:41;;;;;;;4.78;2.00;;;;;;;4.32;73.40;103042.39;1757885;80;21109;-58
2022/12/05 21:09:25;;;;;;;1.30;1.20;;;;;;;4.36;72.99;103052.00;1768833;80;21025;-58
2022/12/05 21:11:44;;;;;;;2.83;1.90;;;;;;;4.40;72.87;103044.86;1764216;80;21533;-58
2022/12/05 21:14:10;;;;;;;3.25;2.15;;;;;;;4.45;72.39;103051.50;1757843;80;21023;-58
2022/12/05 21:16:37;;;;;;;3.58;1.70;;;;;;;4.46;71.83;103043.81;1768730;80;21124;-58
2022/12/05 21:19:03;;;;;;;2.55;1.40;;;;;;;4.47;71.39;103039.11;1770854;80;21042;-58
2022/12/05 21:21:32;;;;;;;4.22;1.77;;;;;;;4.50;71.13;103039.25;1776214;80;21113;-58
2022/12/05 21:24:01;;;;;;;6.05;3.00;;;;;;;4.53;71.03;103042.36;1772861;80;21078;-58
2022/12/05 21:26:29;;;;;;;10.18;5.45;;;;;;;4.53;70.87;103038.09;1750998;80;21059;-58
2022/12/05 21:28:55;;;;;;;10.90;6.30;;;;;;;4.53;70.98;103038.09;1756773;80;21000;-58
2022/12/05 21:31:26;;;;;;;5.08;3.58;;;;;;;4.57;71.11;103040.37;1756256;80;21067;-58
2022/12/05 21:33:58;;;;;;;3.10;1.98;;;;;;;4.59;71.03;103033.17;1700036;83;21112;-58
2022/12/05 21:36:26;;;;;;;2.85;1.60;;;;;;;4.62;71.03;103029.80;1711394;83;21115;-58
2022/12/05 21:38:53;;;;;;;1.95;1.50;;;;;;;4.67;70.87;103030.47;1700425;83;21035;-59
2022/12/05 21:41:20;;;;;;;2.22;1.98;;;;;;;4.69;70.85;103030.13;1723851;82;21049;-58
2022/12/05 21:43:46;;;;;;;7.17;3.00;;;;;;;4.70;70.88;103024.53;1702411;83;21007;-58
2022/12/05 21:46:13;;;;;;;6.42;4.42;;;;;;;4.70;70.93;103026.70;1696559;83;21054;-58
2022/12/05 21:48:39;;;;;;;6.95;5.05;;;;;;;4.67;69.94;103027.01;1713869;82;21065;-58
2022/12/05 21:51:07;;;;;;;7.58;5.55;;;;;;;4.57;69.53;103025.79;1714589;83;21047;-58
2022/12/05 21:53:34;;;;;;;7.87;5.17;;;;;;;4.51;69.29;103023.37;1700949;82;21082;-58
2022/12/05 21:56:09;;;;;;;6.95;5.10;;;;;;;4.42;68.87;103016.56;1707637;82;21526;-58
2022/12/05 21:58:38;;;;;;;5.97;5.05;;;;;;;4.30;68.88;103014.39;1705886;83;21030;-58
2022/12/05 22:01:04;;;;;;;6.10;5.17;;;;;;;4.19;69.03;103009.21;1717065;83;21050;-58
2022/12/05 22:03:31;;;;;;;7.62;5.45;;;;;;;4.14;69.22;103005.59;1715118;83;21112;-58
2022/12/05 22:06:01;;;;;;;6.53;5.08;;;;;;;4.09;69.01;103007.09;1721795;83;21014;-58
2022/12/05 22:08:30;;;;;;;8.43;5.40;;;;;;;4.01;69.21;103006.79;1703907;82;21030;-58
2022/12/05 22:11:07;;;;;;;6.15;4.95;;;;;;;3.95;69.19;102997.92;1611355;88;21134;-58
2022/12/05 22:13:33;;;;;;;6.83;5.37;;;;;;;3.85;69.17;102994.52;1518994;93;21099;-58
2022/12/05 22:16:00;;;;;;;6.45;5.10;;;;;;;3.77;69.41;102992.03;1535029;92;21712;-58
2022/12/05 22:18:27;;;;;;;6.45;5.22;;;;;;;3.72;69.47;102996.09;1503203;93;21114;-58
2022/12/05 22:20:57;;;;;;;6.87;5.42;;;;;;;3.67;69.48;102989.90;1512475;93;21124;-58
2022/12/05 22:23:25;;;;;;;7.62;5.58;;;;;;;3.62;69.66;102983.66;1506060;93;21331;-58
2022/12/05 22:26:01;;;;;;;6.50;5.60;;;;;;;3.59;69.93;102980.94;1505197;93;21071;-58
2022/12/05 22:28:28;;;;;;;6.22;5.42;;;;;;;3.57;69.97;102977.42;1525673;92;21147;-58
2022/12/05 22:30:56;;;;;;;6.15;5.42;;;;;;;3.52;70.07;102978.95;1526752;92;21609;-58
2022/12/05 22:33:23;;;;;;;7.50;5.47;;;;;;;3.45;70.03;102975.63;1544717;91;21186;-58
2022/12/05 22:35:55;;;;;;;7.00;5.30;;;;;;;3.36;70.26;102977.83;1548810;91;21635;-58
2022/12/05 22:38:23;;;;;;;;;;;;;;;3.35;70.53;102969.63;1520047;93;21140;-58
2022/12/05 22:40:53;;;;;;;10.55;5.53;;;;;;;3.35;70.71;102977.34;1510972;93;20112;-58
2022/12/05 22:43:20;;;;;;;10.03;5.87;;;;;;;3.34;70.86;102959.73;1484645;95;21085;-58
2022/12/05 22:45:47;;;;;;;8.03;6.08;;;;;;;3.32;70.80;102953.64;1492848;94;21100;-58
2022/12/05 22:48:13;;;;;;;6.65;5.42;;;;;;;3.30;70.71;102952.30;1463596;96;21604;-58
2022/12/05 22:50:47;;;;;;;6.22;5.62;;;;;;;3.26;70.81;102943.98;1443940;97;21181;-58
2022/12/05 22:53:19;;;;;;;7.65;5.72;;;;;;;3.24;70.89;102935.31;1529586;93;21086;-58
2022/12/05 22:55:45;;;;;;;;;;;;;;;3.20;70.90;102945.01;1515983;93;21086;-58
2022/12/05 22:58:12;;;;;;;7.72;6.03;;;;;;;3.19;71.12;102941.94;1530513;92;20121;-58
2022/12/05 23:00:38;;;;;;;6.28;5.58;;;;;;;3.17;71.07;102942.28;1529085;92;21078;-58
2022/12/05 23:03:05;;;;;;;7.55;5.62;;;;;;;3.11;71.32;102939.45;1535972;92;21585;-58
2022/12/05 23:05:32;;;;;;;9.45;5.72;;;;;;;3.07;71.63;102936.28;1538288;92;21097;-58
2022/12/05 23:07:58;;;;;;;6.62;5.50;;;;;;;3.08;71.62;102929.05;1569238;88;21721;-58
2022/12/05 23:10:25;;;;;;;6.72;5.28;;;;;;;3.08;71.72;102916.19;1638051;86;21085;-58
2022/12/05 23:12:54;;;;;;;9.53;5.72;;;;;;;3.10;71.76;102913.27;1653369;85;21146;-58
2022/12/05 23:15:20;;;;;;;5.95;5.20;;;;;;;3.14;72.01;102920.70;1606896;87;21141;-58
2022/12/05 23:17:47;;;;;;;6.45;5.30;;;;;;;3.19;72.30;102914.08;1646881;86;21053;-58
2022/12/05 23:20:14;;;;;;;6.97;5.15;;;;;;;3.32;72.23;102913.76;1624579;87;21046;-60
2022/12/05 23:22:42;;;;;;;7.60;5.45;;;;;;;3.46;72.09;102911.77;1634974;87;21541;-58
2022/12/05 23:25:08;;;;;;;6.35;4.20;;;;;;;3.49;72.12;102917.03;1627971;87;21082;-58
2022/12/05 23:27:35;;;;;;;4.28;3.10;;;;;;;3.54;72.17;102907.82;1598848;87;21139;-58
2022/12/05 23:30:02;;;;;;;4.05;2.75;;;;;;;3.61;71.96;102902.08;1634945;86;21158;-58
2022/12/05 23:32:29;;;;;;;3.65;2.80;;;;;;;3.75;71.40;102904.83;1642105;86;21078;-58
2022/12/05 23:34:55;;;;;;;5.90;2.45;;;;;;;3.76;71.26;102909.14;1636243;87;21050;-58
2022/12/05 23:37:22;;;;;;;5.75;2.25;;;;;;;3.87;71.01;102909.18;1629340;87;21105;-58
2022/12/05 23:39:49;;;;;;;4.62;2.42;;;;;;;3.95;70.80;102909.06;1641593;85;21545;-58
2022/12/05 23:42:16;;;;;;;3.02;1.75;;;;;;;3.97;70.83;102906.14;1682419;84;21030;-59
2022/12/05 23:44:42;;;;;;;3.15;2.22;;;;;;;4.08;70.42;102910.02;1763963;80;21013;-58
2022/12/05 23:47:09;;;;;;;4.85;2.60;;;;;;;4.13;70.03;102907.20;1759553;80;21530;-58
2022/12/05 23:49:36;;;;;;;5.12;2.20;;;;;;;4.16;69.84;102902.18;1750377;80;21027;-58
2022/12/05 23:52:02;;;;;;;4.17;2.25;;;;;;;4.18;69.56;102895.38;1772407;80;21042;-58
2022/12/05 23:54:29;;;;;;;4.87;2.25;;;;;;;4.20;69.28;102897.61;1772540;80;21030;-58
2022/12/05 23:56:55;;;;;;;3.77;2.25;;;;;;;4.21;69.18;102891.62;1760103;80;21571;-58
2022/12/05 23:59:23;;;;;;;2.75;1.90;;;;;;;4.25;69.10;102888.34;1749309;81;21070;-58
